sensor_id;sensor_type;location;lat;lon;timestamp;pressure;altitude;pressure_sealevel;temperature;humidity
31538;BME280;18147;51.952;6.146;2023-03-23T00:01:07;100171.44;;;12.16;100.00
31538;BME280;18147;51.952;6.146;2023-03-23T00:03:36;100170.50;;;12.06;100.00
31538;BME280;18147;51.952;6.146;2023-03-23T00:06:01;100166.47;;;12.12;100.00
31538;BME280;18147;51.952;6.146;2023-03-23T00:08:49;100175.59;;;11.98;100.00
31538;BME280;18147;51.952;6.146;2023-03-23T00:11:23;100187.97;;;11.99;100.00
31538;BME280;18147;51.952;6.146;2023-03-23T00:13:50;100182.13;;;11.94;100.00
31538;BME280;18147;51.952;6.146;2023-03-23T00:16:21;100164.75;;;12.00;100.00
31538;BME280;18147;51.952;6.146;2023-03-23T00:18:54;100158.78;;;12.18;100.00
31538;BME280;18147;51.952;6.146;2023-03-23T00:21:25;100166.59;;;11.99;100.00
31538;BME280;18147;51.952;6.146;2023-03-23T00:24:10;100151.03;;;12.15;100.00
31538;BME280;18147;51.952;6.146;2023-03-23T00:26:38;100161.50;;;12.07;100.00
31538;BME280;18147;51.952;6.146;2023-03-23T00:29:16;100173.75;;;11.99;100.00
31538;BME280;18147;51.952;6.146;2023-03-23T00:31:43;100173.19;;;11.95;100.00
31538;BME280;18147;51.952;6.146;2023-03-23T00:34:13;100160.72;;;12.28;100.00
31538;BME280;18147;51.952;6.146;2023-03-23T00:36:43;100143.09;;;12.36;100.00
31538;BME280;18147;51.952;6.146;2023-03-23T00:39:11;100147.72;;;12.23;100.00
31538;BME280;18147;51.952;6.146;2023-03-23T00:41:36;100163.16;;;12.19;100.00
31538;BME280;18147;51.952;6.146;2023-03-23T00:44:04;100172.91;;;12.21;100.00
31538;BME280;18147;51.952;6.146;2023-03-23T00:46:29;100183.81;;;12.29;100.00
31538;BME280;18147;51.952;6.146;2023-03-23T00:48:56;100182.13;;;12.16;100.00
31538;BME280;18147;51.952;6.146;2023-03-23T00:51:22;100172.53;;;12.25;100.00
31538;BME280;18147;51.952;6.146;2023-03-23T00:53:48;100169.97;;;12.24;100.00
31538;BME280;18147;51.952;6.146;2023-03-23T00:56:13;100173.38;;;12.14;100.00
31538;BME280;18147;51.952;6.146;2023-03-23T00:58:39;100157.81;;;12.19;100.00
31538;BME280;18147;51.952;6.146;2023-03-23T01:01:06;100159.16;;;12.14;100.00
31538;BME280;18147;51.952;6.146;2023-03-23T01:06:09;100154.03;;;12.33;100.00
31538;BME280;18147;51.952;6.146;2023-03-23T01:08:40;100163.88;;;12.33;100.00
31538;BME280;18147;51.952;6.146;2023-03-23T01:11:12;100143.50;;;12.21;100.00
31538;BME280;18147;51.952;6.146;2023-03-23T01:13:38;100155.75;;;12.23;100.00
31538;BME280;18147;51.952;6.146;2023-03-23T01:16:04;100140.94;;;12.30;100.00
31538;BME280;18147;51.952;6.146;2023-03-23T01:18:29;100132.44;;;12.14;100.00
31538;BME280;18147;51.952;6.146;2023-03-23T01:20:55;100135.97;;;12.26;100.00
31538;BME280;18147;51.952;6.146;2023-03-23T01:23:21;100126.56;;;12.31;100.00
31538;BME280;18147;51.952;6.146;2023-03-23T01:25:46;100119.41;;;12.32;100.00
31538;BME280;18147;51.952;6.146;2023-03-23T01:28:11;100130.09;;;12.32;100.00
31538;BME280;18147;51.952;6.146;2023-03-23T01:30:37;100132.03;;;12.30;100.00
31538;BME280;18147;51.952;6.146;2023-03-23T01:33:03;100131.81;;;12.22;100.00
31538;BME280;18147;51.952;6.146;2023-03-23T01:35:28;100126.63;;;12.20;100.00
31538;BME280;18147;51.952;6.146;2023-03-23T01:37:54;100121.00;;;12.23;100.00
31538;BME280;18147;51.952;6.146;2023-03-23T01:48:30;100075.09;;;12.18;100.00
31538;BME280;18147;51.952;6.146;2023-03-23T01:51:05;100059.69;;;12.10;100.00
31538;BME280;18147;51.952;6.146;2023-03-23T01:53:37;100039.53;;;12.06;100.00
31538;BME280;18147;51.952;6.146;2023-03-23T01:56:04;100047.28;;;12.09;100.00
31538;BME280;18147;51.952;6.146;2023-03-23T01:58:33;100045.41;;;12.00;100.00
31538;BME280;18147;51.952;6.146;2023-03-23T02:01:04;100041.03;;;11.88;100.00
31538;BME280;18147;51.952;6.146;2023-03-23T02:03:31;100047.56;;;12.06;100.00
31538;BME280;18147;51.952;6.146;2023-03-23T02:05:58;100055.34;;;11.98;100.00
31538;BME280;18147;51.952;6.146;2023-03-23T02:08:36;100061.91;;;11.94;100.00
31538;BME280;18147;51.952;6.146;2023-03-23T02:11:12;100066.50;;;12.03;100.00
31538;BME280;18147;51.952;6.146;2023-03-23T02:13:39;100059.56;;;12.12;100.00
31538;BME280;18147;51.952;6.146;2023-03-23T02:33:10;100025.16;;;12.18;100.00
31538;BME280;18147;51.952;6.146;2023-03-23T02:35:56;100038.50;;;12.18;100.00
31538;BME280;18147;51.952;6.146;2023-03-23T02:38:42;100023.22;;;12.21;100.00
31538;BME280;18147;51.952;6.146;2023-03-23T02:41:10;100029.13;;;12.24;100.00
31538;BME280;18147;51.952;6.146;2023-03-23T02:43:40;100033.44;;;12.15;100.00
31538;BME280;18147;51.952;6.146;2023-03-23T02:46:08;100018.50;;;12.13;100.00
31538;BME280;18147;51.952;6.146;2023-03-23T02:48:36;100026.34;;;12.26;100.00
31538;BME280;18147;51.952;6.146;2023-03-23T02:51:04;100031.22;;;12.21;100.00
31538;BME280;18147;51.952;6.146;2023-03-23T02:53:34;100036.78;;;12.29;100.00
31538;BME280;18147;51.952;6.146;2023-03-23T02:56:02;100029.41;;;12.21;100.00
31538;BME280;18147;51.952;6.146;2023-03-23T02:58:30;100033.25;;;12.28;100.00
31538;BME280;18147;51.952;6.146;2023-03-23T03:00:56;100016.38;;;12.28;100.00
31538;BME280;18147;51.952;6.146;2023-03-23T03:03:28;100025.63;;;12.24;100.00
31538;BME280;18147;51.952;6.146;2023-03-23T03:06:11;100019.66;;;12.31;100.00
31538;BME280;18147;51.952;6.146;2023-03-23T03:08:50;100017.50;;;12.25;100.00
31538;BME280;18147;51.952;6.146;2023-03-23T03:11:19;100022.94;;;12.24;100.00
31538;BME280;18147;51.952;6.146;2023-03-23T03:14:08;100019.72;;;12.41;100.00
31538;BME280;18147;51.952;6.146;2023-03-23T03:19:13;100026.28;;;12.37;100.00
31538;BME280;18147;51.952;6.146;2023-03-23T03:21:42;100032.09;;;12.21;100.00
31538;BME280;18147;51.952;6.146;2023-03-23T03:24:11;100034.63;;;12.23;100.00
31538;BME280;18147;51.952;6.146;2023-03-23T03:26:40;100028.00;;;12.38;100.00
31538;BME280;18147;51.952;6.146;2023-03-23T03:29:22;100022.88;;;12.35;100.00
31538;BME280;18147;51.952;6.146;2023-03-23T03:31:52;100019.91;;;12.49;100.00
31538;BME280;18147;51.952;6.146;2023-03-23T03:34:20;100012.09;;;12.57;100.00
31538;BME280;18147;51.952;6.146;2023-03-23T03:36:48;100008.19;;;12.61;100.00
31538;BME280;18147;51.952;6.146;2023-03-23T03:39:15;100019.66;;;12.52;100.00
31538;BME280;18147;51.952;6.146;2023-03-23T03:41:43;100018.13;;;12.38;100.00
31538;BME280;18147;51.952;6.146;2023-03-23T03:44:10;100016.97;;;12.52;100.00
31538;BME280;18147;51.952;6.146;2023-03-23T03:46:36;100007.38;;;12.50;100.00
31538;BME280;18147;51.952;6.146;2023-03-23T03:49:04;100019.81;;;12.39;100.00
31538;BME280;18147;51.952;6.146;2023-03-23T03:51:33;100010.31;;;12.26;100.00
31538;BME280;18147;51.952;6.146;2023-03-23T03:53:59;100013.13;;;12.45;100.00
31538;BME280;18147;51.952;6.146;2023-03-23T03:56:25;100015.53;;;12.48;100.00
31538;BME280;18147;51.952;6.146;2023-03-23T03:59:11;100014.63;;;12.59;100.00
31538;BME280;18147;51.952;6.146;2023-03-23T04:02:01;100009.94;;;12.51;100.00
31538;BME280;18147;51.952;6.146;2023-03-23T04:04:26;100010.97;;;12.60;100.00
31538;BME280;18147;51.952;6.146;2023-03-23T04:06:52;100000.63;;;12.46;100.00
31538;BME280;18147;51.952;6.146;2023-03-23T04:09:17;100003.69;;;12.62;100.00
31538;BME280;18147;51.952;6.146;2023-03-23T04:11:46;100004.59;;;12.72;100.00
31538;BME280;18147;51.952;6.146;2023-03-23T04:14:34;100000.59;;;12.87;100.00
31538;BME280;18147;51.952;6.146;2023-03-23T04:16:59;100001.81;;;12.83;100.00
31538;BME280;18147;51.952;6.146;2023-03-23T04:19:25;100011.94;;;12.80;100.00
31538;BME280;18147;51.952;6.146;2023-03-23T04:21:54;99997.84;;;12.78;100.00
31538;BME280;18147;51.952;6.146;2023-03-23T04:24:21;99998.84;;;12.77;100.00
31538;BME280;18147;51.952;6.146;2023-03-23T04:26:48;100012.75;;;12.70;100.00
31538;BME280;18147;51.952;6.146;2023-03-23T04:29:21;100009.69;;;12.75;100.00
31538;BME280;18147;51.952;6.146;2023-03-23T04:31:47;100019.13;;;12.58;100.00
31538;BME280;18147;51.952;6.146;2023-03-23T04:34:24;100017.31;;;12.59;100.00
31538;BME280;18147;51.952;6.146;2023-03-23T04:36:51;100019.72;;;12.62;100.00
31538;BME280;18147;51.952;6.146;2023-03-23T04:39:22;100021.03;;;12.67;100.00
31538;BME280;18147;51.952;6.146;2023-03-23T04:41:49;100025.75;;;12.75;100.00
31538;BME280;18147;51.952;6.146;2023-03-23T04:44:45;100021.03;;;12.67;100.00
31538;BME280;18147;51.952;6.146;2023-03-23T04:47:18;100024.47;;;12.58;100.00
31538;BME280;18147;51.952;6.146;2023-03-23T04:49:52;100022.25;;;12.63;100.00
31538;BME280;18147;51.952;6.146;2023-03-23T04:52:43;100027.28;;;12.57;100.00
31538;BME280;18147;51.952;6.146;2023-03-23T04:55:11;100029.22;;;12.55;100.00
31538;BME280;18147;51.952;6.146;2023-03-23T04:57:39;100026.09;;;12.50;100.00
31538;BME280;18147;51.952;6.146;2023-03-23T05:00:33;100040.13;;;12.63;100.00
31538;BME280;18147;51.952;6.146;2023-03-23T05:03:01;100040.72;;;12.66;100.00
31538;BME280;18147;51.952;6.146;2023-03-23T05:05:28;100046.19;;;12.65;100.00
31538;BME280;18147;51.952;6.146;2023-03-23T05:07:56;100050.31;;;12.69;100.00
31538;BME280;18147;51.952;6.146;2023-03-23T05:10:24;100052.59;;;12.74;100.00
31538;BME280;18147;51.952;6.146;2023-03-23T05:12:53;100047.53;;;12.70;100.00
31538;BME280;18147;51.952;6.146;2023-03-23T05:15:19;100048.47;;;12.69;100.00
31538;BME280;18147;51.952;6.146;2023-03-23T05:17:44;100050.38;;;12.58;100.00
31538;BME280;18147;51.952;6.146;2023-03-23T05:20:16;100037.00;;;12.58;100.00
31538;BME280;18147;51.952;6.146;2023-03-23T05:22:51;100041.91;;;12.53;100.00
31538;BME280;18147;51.952;6.146;2023-03-23T05:25:23;100043.19;;;12.58;100.00
31538;BME280;18147;51.952;6.146;2023-03-23T05:28:00;100041.81;;;12.64;100.00
31538;BME280;18147;51.952;6.146;2023-03-23T05:30:56;100041.03;;;12.52;100.00
31538;BME280;18147;51.952;6.146;2023-03-23T05:33:26;100039.94;;;12.55;100.00
31538;BME280;18147;51.952;6.146;2023-03-23T05:36:01;100050.00;;;12.62;100.00
31538;BME280;18147;51.952;6.146;2023-03-23T05:38:33;100048.47;;;12.69;100.00
31538;BME280;18147;51.952;6.146;2023-03-23T05:40:59;100063.56;;;12.70;100.00
31538;BME280;18147;51.952;6.146;2023-03-23T05:43:35;100058.53;;;12.77;100.00
31538;BME280;18147;51.952;6.146;2023-03-23T05:46:19;100055.66;;;12.69;100.00
31538;BME280;18147;51.952;6.146;2023-03-23T05:48:46;100048.69;;;12.78;100.00
31538;BME280;18147;51.952;6.146;2023-03-23T05:51:15;100050.44;;;12.67;100.00
31538;BME280;18147;51.952;6.146;2023-03-23T05:53:43;100045.81;;;12.69;100.00
31538;BME280;18147;51.952;6.146;2023-03-23T05:56:10;100048.88;;;12.65;100.00
31538;BME280;18147;51.952;6.146;2023-03-23T05:58:54;100044.56;;;12.74;100.00
31538;BME280;18147;51.952;6.146;2023-03-23T06:01:20;100059.63;;;12.75;100.00
31538;BME280;18147;51.952;6.146;2023-03-23T06:03:45;100051.75;;;12.73;100.00
31538;BME280;18147;51.952;6.146;2023-03-23T06:06:22;100047.38;;;12.72;100.00
31538;BME280;18147;51.952;6.146;2023-03-23T06:08:52;100050.75;;;12.74;100.00
31538;BME280;18147;51.952;6.146;2023-03-23T06:11:26;100054.69;;;12.91;100.00
31538;BME280;18147;51.952;6.146;2023-03-23T06:14:10;100059.00;;;12.82;100.00
31538;BME280;18147;51.952;6.146;2023-03-23T06:16:37;100066.19;;;12.82;100.00
31538;BME280;18147;51.952;6.146;2023-03-23T06:19:07;100072.44;;;12.92;100.00
31538;BME280;18147;51.952;6.146;2023-03-23T06:21:37;100070.00;;;12.89;100.00
31538;BME280;18147;51.952;6.146;2023-03-23T06:24:20;100075.97;;;12.92;100.00
31538;BME280;18147;51.952;6.146;2023-03-23T06:26:46;100074.41;;;13.11;100.00
31538;BME280;18147;51.952;6.146;2023-03-23T06:29:16;100081.91;;;12.96;100.00
31538;BME280;18147;51.952;6.146;2023-03-23T06:31:52;100071.56;;;13.12;100.00
31538;BME280;18147;51.952;6.146;2023-03-23T06:34:20;100073.00;;;13.16;100.00
31538;BME280;18147;51.952;6.146;2023-03-23T06:36:47;100088.16;;;13.06;100.00
31538;BME280;18147;51.952;6.146;2023-03-23T06:39:22;100091.34;;;13.42;100.00
31538;BME280;18147;51.952;6.146;2023-03-23T06:41:56;100084.66;;;13.27;100.00
31538;BME280;18147;51.952;6.146;2023-03-23T06:44:25;100080.31;;;13.35;100.00
31538;BME280;18147;51.952;6.146;2023-03-23T06:46:52;100088.66;;;13.42;100.00
31538;BME280;18147;51.952;6.146;2023-03-23T06:49:24;100092.09;;;13.23;100.00
31538;BME280;18147;51.952;6.146;2023-03-23T06:51:59;100103.31;;;13.17;100.00
31538;BME280;18147;51.952;6.146;2023-03-23T06:54:33;100100.56;;;13.07;100.00
31538;BME280;18147;51.952;6.146;2023-03-23T06:57:10;100098.75;;;13.29;100.00
31538;BME280;18147;51.952;6.146;2023-03-23T06:59:36;100104.09;;;13.08;100.00
31538;BME280;18147;51.952;6.146;2023-03-23T07:02:30;100106.31;;;13.24;100.00
31538;BME280;18147;51.952;6.146;2023-03-23T07:04:56;100108.31;;;13.21;100.00
31538;BME280;18147;51.952;6.146;2023-03-23T07:07:43;100109.75;;;13.26;100.00
31538;BME280;18147;51.952;6.146;2023-03-23T07:10:34;100105.63;;;13.21;100.00
31538;BME280;18147;51.952;6.146;2023-03-23T07:13:15;100119.50;;;13.15;100.00
31538;BME280;18147;51.952;6.146;2023-03-23T07:15:49;100118.31;;;13.08;100.00
31538;BME280;18147;51.952;6.146;2023-03-23T07:18:48;100109.31;;;13.30;100.00
31538;BME280;18147;51.952;6.146;2023-03-23T07:21:47;100123.06;;;13.05;100.00
31538;BME280;18147;51.952;6.146;2023-03-23T07:24:22;100132.53;;;13.09;100.00
31538;BME280;18147;51.952;6.146;2023-03-23T07:27:16;100129.34;;;13.15;100.00
31538;BME280;18147;51.952;6.146;2023-03-23T07:29:42;100133.41;;;13.30;100.00
31538;BME280;18147;51.952;6.146;2023-03-23T07:32:22;100138.56;;;13.01;100.00
31538;BME280;18147;51.952;6.146;2023-03-23T07:34:54;100155.59;;;13.00;100.00
31538;BME280;18147;51.952;6.146;2023-03-23T07:41:00;100159.75;;;12.93;100.00
31538;BME280;18147;51.952;6.146;2023-03-23T08:19:26;100195.75;;;12.68;100.00
31538;BME280;18147;51.952;6.146;2023-03-23T08:33:49;100189.81;;;12.96;100.00
31538;BME280;18147;51.952;6.146;2023-03-23T08:36:46;100184.69;;;12.93;100.00
31538;BME280;18147;51.952;6.146;2023-03-23T08:40:03;100200.66;;;13.16;100.00
31538;BME280;18147;51.952;6.146;2023-03-23T09:03:04;100199.75;;;13.68;100.00
31538;BME280;18147;51.952;6.146;2023-03-23T09:20:55;100228.00;;;13.52;100.00
31538;BME280;18147;51.952;6.146;2023-03-23T09:23:37;100207.19;;;13.65;100.00
31538;BME280;18147;51.952;6.146;2023-03-23T09:26:12;100221.00;;;13.39;100.00
31538;BME280;18147;51.952;6.146;2023-03-23T09:29:04;100227.78;;;13.64;100.00
31538;BME280;18147;51.952;6.146;2023-03-23T09:31:34;100237.44;;;13.35;100.00
31538;BME280;18147;51.952;6.146;2023-03-23T09:34:02;100231.78;;;13.49;100.00
31538;BME280;18147;51.952;6.146;2023-03-23T09:36:55;100221.53;;;13.54;100.00
31538;BME280;18147;51.952;6.146;2023-03-23T09:39:57;100237.13;;;13.70;100.00
31538;BME280;18147;51.952;6.146;2023-03-23T10:01:06;100226.72;;;15.07;100.00
31538;BME280;18147;51.952;6.146;2023-03-23T10:03:48;100233.34;;;15.13;100.00
31538;BME280;18147;51.952;6.146;2023-03-23T10:17:31;100239.81;;;14.91;100.00
31538;BME280;18147;51.952;6.146;2023-03-23T10:20:23;100240.81;;;14.99;98.32
31538;BME280;18147;51.952;6.146;2023-03-23T10:23:01;100250.16;;;15.53;98.62
31538;BME280;18147;51.952;6.146;2023-03-23T10:25:34;100249.88;;;15.66;96.35
31538;BME280;18147;51.952;6.146;2023-03-23T10:28:17;100260.22;;;15.22;95.01
31538;BME280;18147;51.952;6.146;2023-03-23T10:31:15;100253.13;;;15.31;93.46
31538;BME280;18147;51.952;6.146;2023-03-23T10:45:23;100254.25;;;15.77;84.51
31538;BME280;18147;51.952;6.146;2023-03-23T10:52:57;100248.25;;;16.30;86.81
31538;BME280;18147;51.952;6.146;2023-03-23T11:02:41;100262.25;;;16.61;79.73
31538;BME280;18147;51.952;6.146;2023-03-23T11:05:34;100274.09;;;16.78;77.29
31538;BME280;18147;51.952;6.146;2023-03-23T11:08:23;100266.03;;;16.68;77.73
31538;BME280;18147;51.952;6.146;2023-03-23T11:11:24;100257.72;;;16.34;76.84
31538;BME280;18147;51.952;6.146;2023-03-23T11:25:05;100249.72;;;15.68;76.14
31538;BME280;18147;51.952;6.146;2023-03-23T11:31:52;100264.78;;;16.72;76.33
31538;BME280;18147;51.952;6.146;2023-03-23T11:56:57;100272.09;;;17.51;69.70
31538;BME280;18147;51.952;6.146;2023-03-23T11:59:55;100271.72;;;17.11;71.54
31538;BME280;18147;51.952;6.146;2023-03-23T12:32:38;100241.88;;;17.66;75.21
31538;BME280;18147;51.952;6.146;2023-03-23T12:35:52;100262.59;;;17.03;76.49
31538;BME280;18147;51.952;6.146;2023-03-23T12:49:44;100234.72;;;17.56;74.29
31538;BME280;18147;51.952;6.146;2023-03-23T12:52:53;100236.44;;;17.57;74.68
31538;BME280;18147;51.952;6.146;2023-03-23T13:10:26;100222.69;;;17.25;77.95
31538;BME280;18147;51.952;6.146;2023-03-23T13:12:59;100202.81;;;17.70;77.32
31538;BME280;18147;51.952;6.146;2023-03-23T13:22:37;100209.63;;;17.74;72.55
31538;BME280;18147;51.952;6.146;2023-03-23T13:33:29;100260.19;;;16.18;77.72
31538;BME280;18147;51.952;6.146;2023-03-23T13:47:35;100295.41;;;14.29;100.00
31538;BME280;18147;51.952;6.146;2023-03-23T13:53:49;100292.31;;;14.55;100.00
31538;BME280;18147;51.952;6.146;2023-03-23T13:56:36;100286.53;;;14.59;100.00
31538;BME280;18147;51.952;6.146;2023-03-23T14:05:51;100270.66;;;15.25;100.00
31538;BME280;18147;51.952;6.146;2023-03-23T14:26:19;100249.44;;;16.45;100.00
31538;BME280;18147;51.952;6.146;2023-03-23T14:49:34;100305.16;;;14.61;100.00
31538;BME280;18147;51.952;6.146;2023-03-23T14:52:16;100277.00;;;15.15;100.00
31538;BME280;18147;51.952;6.146;2023-03-23T14:55:19;100263.84;;;15.60;100.00
31538;BME280;18147;51.952;6.146;2023-03-23T14:58:21;100231.53;;;15.99;100.00
31538;BME280;18147;51.952;6.146;2023-03-23T15:01:09;100217.00;;;15.82;100.00
31538;BME280;18147;51.952;6.146;2023-03-23T15:08:03;100203.25;;;15.85;100.00
31538;BME280;18147;51.952;6.146;2023-03-23T15:14:02;100181.03;;;15.93;100.00
31538;BME280;18147;51.952;6.146;2023-03-23T15:16:33;100188.88;;;15.76;98.15
31538;BME280;18147;51.952;6.146;2023-03-23T15:19:04;100189.16;;;15.73;100.00
31538;BME280;18147;51.952;6.146;2023-03-23T15:21:38;100190.25;;;15.80;100.00
31538;BME280;18147;51.952;6.146;2023-03-23T15:24:39;100199.84;;;15.93;98.79
31538;BME280;18147;51.952;6.146;2023-03-23T15:27:22;100213.78;;;15.59;98.48
31538;BME280;18147;51.952;6.146;2023-03-23T15:29:54;100215.09;;;16.02;99.00
31538;BME280;18147;51.952;6.146;2023-03-23T15:32:25;100219.19;;;15.96;100.00
31538;BME280;18147;51.952;6.146;2023-03-23T15:34:51;100210.53;;;16.12;100.00
31538;BME280;18147;51.952;6.146;2023-03-23T15:37:30;100202.59;;;16.38;99.59
31538;BME280;18147;51.952;6.146;2023-03-23T15:39:58;100199.47;;;16.15;100.00
31538;BME280;18147;51.952;6.146;2023-03-23T15:42:27;100184.50;;;16.30;99.98
31538;BME280;18147;51.952;6.146;2023-03-23T15:44:58;100181.41;;;16.25;100.00
31538;BME280;18147;51.952;6.146;2023-03-23T15:47:57;100172.88;;;16.12;100.00
31538;BME280;18147;51.952;6.146;2023-03-23T15:50:33;100171.53;;;15.98;100.00
31538;BME280;18147;51.952;6.146;2023-03-23T15:52:59;100180.78;;;16.14;100.00
31538;BME280;18147;51.952;6.146;2023-03-23T15:55:28;100172.81;;;16.22;100.00
31538;BME280;18147;51.952;6.146;2023-03-23T15:57:56;100175.59;;;16.30;100.00
31538;BME280;18147;51.952;6.146;2023-03-23T16:00:24;100175.72;;;16.56;98.53
31538;BME280;18147;51.952;6.146;2023-03-23T16:02:56;100172.22;;;16.73;99.65
31538;BME280;18147;51.952;6.146;2023-03-23T16:05:23;100184.56;;;16.48;98.23
31538;BME280;18147;51.952;6.146;2023-03-23T16:07:49;100199.22;;;16.09;95.35
31538;BME280;18147;51.952;6.146;2023-03-23T16:10:20;100199.56;;;16.23;97.73
31538;BME280;18147;51.952;6.146;2023-03-23T16:12:46;100185.13;;;15.97;98.51
31538;BME280;18147;51.952;6.146;2023-03-23T16:15:12;100171.03;;;15.75;100.00
31538;BME280;18147;51.952;6.146;2023-03-23T16:17:38;100171.38;;;15.53;100.00
31538;BME280;18147;51.952;6.146;2023-03-23T16:20:16;100170.63;;;15.70;99.35
31538;BME280;18147;51.952;6.146;2023-03-23T16:22:43;100175.16;;;15.70;100.00
31538;BME280;18147;51.952;6.146;2023-03-23T16:25:09;100176.94;;;15.89;99.31
31538;BME280;18147;51.952;6.146;2023-03-23T16:27:36;100185.28;;;15.86;100.00
31538;BME280;18147;51.952;6.146;2023-03-23T16:30:13;100193.56;;;15.65;100.00
31538;BME280;18147;51.952;6.146;2023-03-23T16:32:39;100173.44;;;15.78;100.00
31538;BME280;18147;51.952;6.146;2023-03-23T16:35:05;100195.59;;;15.90;100.00
31538;BME280;18147;51.952;6.146;2023-03-23T16:37:31;100188.31;;;15.73;100.00
31538;BME280;18147;51.952;6.146;2023-03-23T16:39:58;100191.28;;;15.70;100.00
31538;BME280;18147;51.952;6.146;2023-03-23T16:42:23;100182.69;;;15.66;100.00
31538;BME280;18147;51.952;6.146;2023-03-23T16:44:49;100187.59;;;15.71;100.00
31538;BME280;18147;51.952;6.146;2023-03-23T16:47:15;100202.03;;;15.70;100.00
31538;BME280;18147;51.952;6.146;2023-03-23T16:49:43;100198.94;;;15.65;100.00
31538;BME280;18147;51.952;6.146;2023-03-23T16:52:08;100197.50;;;15.51;100.00
31538;BME280;18147;51.952;6.146;2023-03-23T16:54:34;100198.28;;;15.34;100.00
31538;BME280;18147;51.952;6.146;2023-03-23T16:56:59;100217.22;;;14.84;100.00
31538;BME280;18147;51.952;6.146;2023-03-23T16:59:27;100219.00;;;14.54;100.00
31538;BME280;18147;51.952;6.146;2023-03-23T17:01:52;100220.16;;;14.52;100.00
31538;BME280;18147;51.952;6.146;2023-03-23T17:04:18;100228.63;;;14.57;100.00
31538;BME280;18147;51.952;6.146;2023-03-23T17:06:43;100231.34;;;14.66;100.00
31538;BME280;18147;51.952;6.146;2023-03-23T17:09:11;100219.94;;;14.43;100.00
31538;BME280;18147;51.952;6.146;2023-03-23T17:11:36;100226.97;;;14.35;100.00
31538;BME280;18147;51.952;6.146;2023-03-23T17:14:02;100219.19;;;14.22;100.00
31538;BME280;18147;51.952;6.146;2023-03-23T17:16:27;100206.66;;;14.32;100.00
31538;BME280;18147;51.952;6.146;2023-03-23T17:18:53;100217.59;;;14.19;100.00
31538;BME280;18147;51.952;6.146;2023-03-23T17:21:18;100217.97;;;14.05;100.00
31538;BME280;18147;51.952;6.146;2023-03-23T17:23:46;100208.19;;;13.94;100.00
31538;BME280;18147;51.952;6.146;2023-03-23T17:26:11;100212.06;;;14.02;100.00
31538;BME280;18147;51.952;6.146;2023-03-23T17:28:37;100211.09;;;14.12;100.00
31538;BME280;18147;51.952;6.146;2023-03-23T17:31:02;100207.53;;;14.02;100.00
31538;BME280;18147;51.952;6.146;2023-03-23T17:33:30;100206.50;;;13.93;100.00
31538;BME280;18147;51.952;6.146;2023-03-23T17:35:55;100216.56;;;14.01;100.00
31538;BME280;18147;51.952;6.146;2023-03-23T17:38:21;100214.84;;;14.00;100.00
31538;BME280;18147;51.952;6.146;2023-03-23T17:40:46;100206.59;;;13.82;100.00
31538;BME280;18147;51.952;6.146;2023-03-23T17:43:12;100200.09;;;14.06;100.00
31538;BME280;18147;51.952;6.146;2023-03-23T17:45:37;100186.53;;;14.07;100.00
31538;BME280;18147;51.952;6.146;2023-03-23T17:48:03;100196.31;;;13.87;100.00
31538;BME280;18147;51.952;6.146;2023-03-23T17:50:33;100207.78;;;13.99;100.00
31538;BME280;18147;51.952;6.146;2023-03-23T17:52:58;100207.75;;;13.89;100.00
31538;BME280;18147;51.952;6.146;2023-03-23T17:55:25;100198.81;;;13.79;100.00
31538;BME280;18147;51.952;6.146;2023-03-23T17:57:51;100203.91;;;13.82;100.00
31538;BME280;18147;51.952;6.146;2023-03-23T18:00:17;100197.66;;;13.72;100.00
31538;BME280;18147;51.952;6.146;2023-03-23T18:02:42;100202.03;;;13.73;100.00
31538;BME280;18147;51.952;6.146;2023-03-23T18:05:08;100199.16;;;13.65;100.00
31538;BME280;18147;51.952;6.146;2023-03-23T18:07:35;100198.31;;;13.64;100.00
31538;BME280;18147;51.952;6.146;2023-03-23T18:10:01;100197.00;;;13.59;100.00
31538;BME280;18147;51.952;6.146;2023-03-23T18:12:26;100187.38;;;13.46;100.00
31538;BME280;18147;51.952;6.146;2023-03-23T18:14:58;100192.31;;;13.72;100.00
31538;BME280;18147;51.952;6.146;2023-03-23T18:17:24;100189.03;;;13.68;100.00
31538;BME280;18147;51.952;6.146;2023-03-23T18:19:49;100188.63;;;13.73;100.00
31538;BME280;18147;51.952;6.146;2023-03-23T18:22:15;100186.44;;;13.57;100.00
31538;BME280;18147;51.952;6.146;2023-03-23T18:24:40;100182.91;;;13.57;100.00
31538;BME280;18147;51.952;6.146;2023-03-23T18:27:06;100175.19;;;13.63;100.00
31538;BME280;18147;51.952;6.146;2023-03-23T18:29:31;100183.38;;;13.62;100.00
31538;BME280;18147;51.952;6.146;2023-03-23T18:31:57;100177.25;;;13.81;100.00
31538;BME280;18147;51.952;6.146;2023-03-23T18:34:22;100168.00;;;13.64;100.00
31538;BME280;18147;51.952;6.146;2023-03-23T18:36:48;100155.38;;;13.85;100.00
31538;BME280;18147;51.952;6.146;2023-03-23T18:39:13;100154.00;;;13.81;100.00
31538;BME280;18147;51.952;6.146;2023-03-23T18:41:40;100148.59;;;13.71;100.00
31538;BME280;18147;51.952;6.146;2023-03-23T18:44:05;100148.53;;;13.92;100.00
31538;BME280;18147;51.952;6.146;2023-03-23T18:46:30;100140.19;;;13.86;100.00
31538;BME280;18147;51.952;6.146;2023-03-23T18:48:56;100148.47;;;13.83;100.00
31538;BME280;18147;51.952;6.146;2023-03-23T18:51:22;100149.19;;;13.85;100.00
31538;BME280;18147;51.952;6.146;2023-03-23T18:53:48;100138.47;;;13.85;100.00
31538;BME280;18147;51.952;6.146;2023-03-23T18:56:15;100151.16;;;13.83;100.00